KPWM/PWM METAR and TAF weather

Enter ICAO airport designator
Station Type Date Time Source
KPWM METAR 2022/06/30 13:51 UTC NOAA

KPWM 301351Z 30017G27KT 10SM FEW065 22/09 A3014 RMK AO2 PK WND 31027/1


Station Type Date Time Source
KPWM Decoded METAR 2022/06/30 13:51 UTC NOAA

PORTLAND INTERNATIONAL JETPORT, ME, United States (KPWM) 43-39N 70-18W 15M
Jun 30, 2022 - 09:51 AM EDT / 2022.06.30 1351 UTC
Wind: from the WNW (300 degrees) at 20 MPH (17 KT) gusting to 31 MPH (27 KT):0
Visibility: 10 mile(s):0
Sky conditions: mostly clear
Temperature: 71.1 F (21.7 C)
Dew Point: 48.0 F (8.9 C)
Relative Humidity: 43%
Pressure (altimeter): 30.14 in. Hg (1020 hPa)
ob: KPWM 301351Z 30017G27KT 10SM FEW065 22/09 A3014 RMK AO2 PK WND 31027/1347 SLP205 T02170089
cycle: 14

Station Type Date Time Source
KPWM TAF 2022/06/30 12:24 UTC NOAA

TAF KPWM 301120Z 3012/0112 30006KT P6SM SCT150
FM301400 34012KT P6SM SCT250
FM301900 29009KT P6SM SCT250

Example: see airport list